This is the latest recevied weather packets stored in our database for station/object LRBS. If no packets are shown the sender has not sent any weather packets the latest 10 day(s).
| Time | Temp. | Humidity | Pressure | Rain* | Wind** | Luminosity | Snow |
|---|---|---|---|---|---|---|---|
| 1787761094 | 27.22° C | 58% | 1015 hPa | - | - | - | - |
| 1787760225 | 27.22° C | 58% | 1015 hPa | - | - | - | - |
| 1787759294 | 27.78° C | 55% | 1015 hPa | - | - | - | - |
| 1787758394 | 27.78° C | 55% | 1015 hPa | - | - | - | - |
| 1787757496 | 27.78° C | 51% | 1015 hPa | - | - | - | - |
| 1787756595 | 27.78° C | 51% | 1015 hPa | - | - | - | - |
| 1787755691 | 28.89° C | 48% | 1015 hPa | - | - | - | - |
| 1787754796 | 28.89° C | 48% | 1015 hPa | - | - | - | - |
| 1787753894 | 30° C | 46% | 1015 hPa | - | - | - | - |
| 1787752994 | 30° C | 46% | 1015 hPa | - | - | - | - |
| 1787752095 | 27.78° C | 55% | 1015 hPa | - | - | - | - |
| 1787751198 | 27.78° C | 55% | 1015 hPa | - | - | - | - |
| 1787750295 | 27.78° C | 51% | 1015 hPa | - | - | - | - |
| 1787749403 | 27.78° C | 51% | 1015 hPa | - | - | - | - |
| 1787748515 | 27.78° C | 51% | 1015 hPa | - | - | - | - |
| 1787747594 | 27.78° C | 51% | 1015 hPa | - | - | - | - |
| 1787746694 | 27.78° C | 55% | 1015 hPa | - | - | - | - |
| 1787745794 | 27.78° C | 55% | 1015 hPa | - | - | - | - |
| 1787744894 | 27.22° C | 58% | 1015 hPa | - | - | - | - |
| 1787743994 | 27.22° C | 58% | 1015 hPa | - | - | - | - |
| 1787743094 | 26.11° C | 58% | 1016 hPa | - | - | - | - |
| 1787742194 | 26.11° C | 58% | 1016 hPa | - | - | - | - |
| 1787741294 | 26.11° C | 61% | 1016 hPa | - | - | - | - |
| 1787740395 | 26.11° C | 61% | 1016 hPa | - | - | - | - |
| 1787739494 | 25° C | 65% | 1016 hPa | - | - | - | - |
* Rain since midnight (hover to see other rain measurements)
** Current wind speed in m/s (hover to see current wind gust speed)